Time;durP1;ratioP1;P1;durP2;ratioP2;P2;SDS_P1;SDS_P2;PMS_P1;PMS_P2;Temp;Humidity;BMP_temperature;BMP_pressure;BME280_temperature;BME280_humidity;BME280_pressure;Samples;Min_cycle;Max_cycle;Signal;HPM_P1;HPM_P2
2022/11/18 04:57:42;;;;;;;41.83;23.75;;;;;;;10.16;91.19;99017.87;5606489;31;83858;-55
2022/11/18 05:00:45;;;;;;;39.90;22.73;;;;;;;10.16;91.19;99017.87;5598802;31;33529;-55
2022/11/18 05:03:47;;;;;;;36.63;23.02;;;;;;;9.78;91.35;99027.19;5603587;31;33595;-55
2022/11/18 05:06:52;;;;;;;36.03;21.92;;;;;;;9.81;90.71;99026.56;5603390;31;33754;-55
2022/11/18 05:09:54;;;;;;;38.25;22.67;;;;;;;9.84;97.55;99022.50;5596695;31;33601;-55
2022/11/18 05:12:56;;;;;;;40.05;24.20;;;;;;;9.84;92.49;99019.81;5603402;31;33629;-55
2022/11/18 05:16:00;;;;;;;38.35;24.02;;;;;;;9.87;91.27;99003.16;5602180;31;34184;-55
2022/11/18 05:19:04;;;;;;;37.28;22.73;;;;;;;9.80;91.58;99000.09;5602980;31;33632;-56
2022/11/18 05:22:06;;;;;;;55.20;31.77;;;;;;;9.79;97.33;98987.81;5602795;31;34156;-55
2022/11/18 05:25:09;;;;;;;59.45;31.55;;;;;;;9.78;93.58;98991.59;5602194;31;33654;-55
2022/11/18 05:28:11;;;;;;;52.55;29.63;;;;;;;9.84;95.98;98985.81;5603086;31;34405;-56
2022/11/18 05:31:15;;;;;;;55.47;30.62;;;;;;;9.89;95.95;98984.88;5603125;31;33585;-55
2022/11/18 05:34:18;;;;;;;53.10;30.70;;;;;;;9.95;97.20;98985.53;5601111;31;33708;-56
2022/11/18 05:37:21;;;;;;;51.67;30.75;;;;;;;10.10;93.88;98995.84;5584096;31;33175;-55
2022/11/18 05:40:25;;;;;;;51.37;30.35;;;;;;;10.07;96.61;98993.78;5585437;31;34194;-55
2022/11/18 05:43:28;;;;;;;54.53;31.50;;;;;;;10.17;92.90;98998.06;5594688;31;34888;-56
2022/11/18 05:46:30;;;;;;;49.55;27.17;;;;;;;10.11;96.38;98989.38;5579193;32;33732;-55
2022/11/18 05:49:34;;;;;;;50.88;28.70;;;;;;;10.26;100.00;98980.91;5571894;31;34386;-56
2022/11/18 05:52:36;;;;;;;50.15;29.95;;;;;;;10.42;100.00;98983.94;5580701;31;33849;-55
2022/11/18 05:55:46;;;;;;;50.40;27.75;;;;;;;10.25;94.19;98986.56;5582698;32;33678;-56
2022/11/18 05:58:49;;;;;;;40.85;25.92;;;;;;;10.15;98.79;99001.03;5581127;31;33881;-56
2022/11/18 06:01:58;;;;;;;42.30;27.30;;;;;;;10.11;99.67;98998.19;5579533;31;34315;-56
2022/11/18 06:05:02;;;;;;;40.95;25.83;;;;;;;10.26;97.38;98988.94;5571909;31;33781;-55
2022/11/18 06:08:04;;;;;;;44.55;26.45;;;;;;;10.32;100.00;99003.00;5573525;32;33734;-56
2022/11/18 06:11:11;;;;;;;44.28;26.40;;;;;;;10.23;96.30;99007.50;5567344;31;33745;-56
2022/11/18 06:14:21;;;;;;;38.88;26.30;;;;;;;10.38;95.59;99006.31;5566680;31;34389;-55
2022/11/18 06:17:33;;;;;;;44.03;26.02;;;;;;;10.27;93.24;99001.25;5561996;32;33649;-55
2022/11/18 06:20:37;;;;;;;44.28;26.17;;;;;;;10.31;99.24;98994.16;5564136;32;34138;-55
2022/11/18 06:23:42;;;;;;;49.35;27.62;;;;;;;10.46;100.00;98992.12;5567345;31;33550;-55
2022/11/18 06:26:45;;;;;;;39.65;25.10;;;;;;;10.39;100.00;98994.50;5569626;31;34278;-56
2022/11/18 06:29:47;;;;;;;39.30;24.80;;;;;;;10.27;96.44;98984.41;5565782;31;34348;-56
2022/11/18 06:32:50;;;;;;;39.42;25.60;;;;;;;10.20;94.97;98986.69;5568560;31;33316;-55
2022/11/18 06:35:52;;;;;;;40.60;24.02;;;;;;;10.22;96.99;98993.31;5564446;32;33613;-56
2022/11/18 06:38:54;;;;;;;41.55;24.20;;;;;;;10.30;99.61;98975.75;5567385;31;34269;-55
2022/11/18 06:41:57;;;;;;;40.58;25.65;;;;;;;10.32;100.00;98978.88;5567103;31;33818;-56
2022/11/18 06:44:59;;;;;;;40.55;23.42;;;;;;;10.32;97.76;98977.00;5572533;31;33198;-57
2022/11/18 06:48:03;;;;;;;40.65;25.15;;;;;;;10.41;100.00;98981.59;5567341;31;32506;-56
2022/11/18 06:51:06;;;;;;;38.13;23.75;;;;;;;10.62;100.00;98982.53;5567125;31;33596;-55
2022/11/18 06:54:08;;;;;;;44.10;24.98;;;;;;;10.83;100.00;98982.72;5562992;31;33689;-56
2022/11/18 06:57:12;;;;;;;44.42;23.23;;;;;;;10.70;97.77;98979.09;5565360;31;33674;-56
2022/11/18 07:00:15;;;;;;;38.88;22.02;;;;;;;10.72;100.00;98990.28;5565741;31;33722;-55
2022/11/18 07:03:17;;;;;;;44.80;24.00;;;;;;;10.77;100.00;98984.00;5567940;32;34190;-56
2022/11/18 07:06:24;;;;;;;40.42;24.63;;;;;;;10.69;100.00;98992.81;5566604;31;33389;-56
2022/11/18 07:09:27;;;;;;;43.80;22.85;;;;;;;10.55;94.19;98988.37;5569639;31;33767;-56
2022/11/18 07:12:29;;;;;;;40.90;22.02;;;;;;;10.50;96.74;98999.25;5568032;32;33561;-56
2022/11/18 07:15:32;;;;;;;37.97;22.48;;;;;;;10.51;100.00;98997.38;5566253;31;34214;-55
2022/11/18 07:18:37;;;;;;;38.80;21.85;;;;;;;10.63;100.00;98986.00;5565974;31;34308;-55
2022/11/18 07:21:40;;;;;;;37.08;20.65;;;;;;;10.52;93.67;98978.28;5564872;31;33725;-55
2022/11/18 07:24:42;;;;;;;34.72;20.70;;;;;;;10.49;100.00;98980.81;5566035;31;33670;-55
2022/11/18 07:27:44;;;;;;;35.03;20.77;;;;;;;10.66;100.00;98970.13;5566859;31;34003;-56
2022/11/18 07:30:47;;;;;;;42.85;21.42;;;;;;;10.56;100.00;98973.91;5568582;32;33667;-56
2022/11/18 07:33:52;;;;;;;38.70;22.45;;;;;;;10.62;100.00;98976.41;5567289;32;33727;-56
2022/11/18 07:36:55;;;;;;;40.50;22.73;;;;;;;10.68;100.00;98975.94;5564863;31;33694;-56
2022/11/18 07:39:58;;;;;;;34.33;20.85;;;;;;;10.73;100.00;98966.97;5567566;31;33677;-56
2022/11/18 07:43:01;;;;;;;38.05;20.55;;;;;;;10.51;100.00;98965.22;5568005;31;33782;-55
2022/11/18 07:46:16;;;;;;;33.65;20.55;;;;;;;10.70;100.00;98971.06;5563321;31;34523;-55
2022/11/18 07:49:18;;;;;;;31.23;18.62;;;;;;;10.87;100.00;98945.34;5566770;31;33777;-55
2022/11/18 07:52:21;;;;;;;32.75;20.00;;;;;;;11.00;100.00;98933.66;5565614;31;32963;-56
2022/11/18 07:55:23;;;;;;;35.78;20.95;;;;;;;10.89;92.80;98941.22;5565939;31;33832;-56
2022/11/18 07:58:33;;;;;;;32.15;20.12;;;;;;;10.65;92.77;98939.03;5566842;32;33703;-56
2022/11/18 08:01:35;;;;;;;35.00;21.08;;;;;;;10.42;99.67;98941.06;5567216;31;33617;-55
2022/11/18 08:04:38;;;;;;;34.00;19.10;;;;;;;10.45;94.54;98945.03;5565557;32;33553;-56
2022/11/18 08:07:40;;;;;;;35.03;21.27;;;;;;;10.41;100.00;98944.09;5567409;32;34176;-55
2022/11/18 08:10:43;;;;;;;36.25;21.15;;;;;;;10.28;97.69;98951.16;5566357;32;34374;-55
2022/11/18 08:13:45;;;;;;;36.10;21.95;;;;;;;10.34;94.21;98964.09;5566577;31;33657;-55
2022/11/18 08:16:47;;;;;;;37.50;21.37;;;;;;;10.42;93.14;98961.72;5563621;31;34289;-56
2022/11/18 08:19:49;;;;;;;34.50;21.08;;;;;;;10.35;100.00;98946.12;5567531;32;34771;-55
2022/11/18 08:22:52;;;;;;;37.05;21.58;;;;;;;10.43;100.00;98949.91;5566939;31;33696;-56
2022/11/18 08:26:10;;;;;;;36.95;20.15;;;;;;;10.51;95.64;98952.59;5566007;31;33907;-55
2022/11/18 08:29:12;;;;;;;33.15;20.52;;;;;;;10.47;100.00;98948.97;5567540;32;33931;-55
2022/11/18 08:32:14;;;;;;;35.45;20.10;;;;;;;10.59;100.00;98937.62;5568781;31;34241;-56
2022/11/18 08:35:17;;;;;;;32.58;18.08;;;;;;;10.58;96.00;98938.72;5561050;31;32973;-56
2022/11/18 08:38:19;;;;;;;31.95;19.58;;;;;;;10.74;100.00;98934.47;5566081;32;34259;-56
2022/11/18 08:41:37;;;;;;;37.20;19.05;;;;;;;10.85;96.06;98918.06;5564939;31;33753;-57
2022/11/18 08:44:39;;;;;;;35.03;18.42;;;;;;;10.90;97.84;98916.03;5550889;31;33958;-56
2022/11/18 08:47:41;;;;;;;35.83;18.90;;;;;;;10.82;95.12;98911.44;5566854;31;33639;-55
2022/11/18 08:50:43;;;;;;;36.63;19.90;;;;;;;10.81;100.00;98910.66;5564990;31;34198;-56
2022/11/18 08:53:45;;;;;;;35.10;20.30;;;;;;;10.71;100.00;98910.97;5569579;31;33797;-55
2022/11/18 08:56:49;;;;;;;33.58;19.80;;;;;;;10.86;100.00;98901.69;5565179;31;33714;-55
2022/11/18 08:59:52;;;;;;;33.13;19.08;;;;;;;10.87;100.00;98905.94;5562253;31;33699;-55
2022/11/18 09:02:54;;;;;;;30.85;17.37;;;;;;;10.98;100.00;98898.34;5565250;31;33843;-55
2022/11/18 09:06:25;;;;;;;29.00;18.37;;;;;;;10.93;98.76;98896.63;5566402;31;33811;-56
2022/11/18 09:09:27;;;;;;;29.02;18.08;;;;;;;10.85;99.14;98891.25;5559833;32;33637;-56
2022/11/18 09:12:29;;;;;;;29.17;18.37;;;;;;;10.68;96.85;98900.91;5567700;31;33268;-56
2022/11/18 09:15:31;;;;;;;29.15;17.23;;;;;;;10.65;94.70;98912.25;5568278;31;34121;-56
2022/11/18 09:18:35;;;;;;;27.30;16.60;;;;;;;10.60;100.00;98923.12;5567040;32;33605;-55
2022/11/18 09:21:37;;;;;;;27.95;16.92;;;;;;;10.80;100.00;98927.06;5565245;31;33717;-55
2022/11/18 09:24:42;;;;;;;27.65;16.12;;;;;;;10.70;99.24;98914.78;5567176;32;33666;-55
2022/11/18 09:27:44;;;;;;;24.98;15.57;;;;;;;10.69;100.00;98907.81;5565849;31;33578;-55
2022/11/18 09:30:47;;;;;;;27.42;16.17;;;;;;;10.79;100.00;98891.44;5566631;32;33607;-55
2022/11/18 09:33:50;;;;;;;26.00;16.15;;;;;;;10.91;95.52;98890.78;5565291;31;34177;-56
2022/11/18 09:36:55;;;;;;;24.52;15.30;;;;;;;10.72;96.06;98887.66;5566119;31;33609;-55
2022/11/18 09:39:57;;;;;;;26.58;16.02;;;;;;;10.67;100.00;98882.47;5564403;32;33877;-56
2022/11/18 09:43:19;;;;;;;25.00;16.75;;;;;;;10.80;97.41;98882.28;5567517;31;33692;-55
2022/11/18 09:46:30;;;;;;;24.90;15.82;;;;;;;10.78;100.00;98868.41;5569101;31;33881;-55
2022/11/18 09:49:36;;;;;;;25.83;15.48;;;;;;;10.85;100.00;98873.28;5569490;32;33672;-55
2022/11/18 09:52:48;;;;;;;26.50;17.10;;;;;;;10.77;100.00;98874.88;5569406;32;33598;-55
2022/11/18 09:55:51;;;;;;;27.83;16.55;;;;;;;10.89;100.00;98876.09;5570281;31;33857;-55
2022/11/18 09:58:53;;;;;;;27.83;15.90;;;;;;;10.87;100.00;98867.63;5563072;31;34369;-56
2022/11/18 10:02:30;;;;;;;26.33;15.60;;;;;;;10.84;100.00;98861.00;5564555;31;33629;-55
2022/11/18 10:05:39;;;;;;;28.62;16.48;;;;;;;10.98;100.00;98860.78;5555463;31;34454;-56
2022/11/18 10:08:51;;;;;;;22.23;14.73;;;;;;;10.95;93.25;98839.97;5566831;31;34272;-56
2022/11/18 10:12:18;;;;;;;23.33;14.45;;;;;;;11.10;100.00;98834.09;5565959;32;33601;-55
2022/11/18 10:15:35;;;;;;;23.20;15.18;;;;;;;10.91;93.70;98833.69;5565218;31;34321;-55
2022/11/18 10:18:51;;;;;;;26.92;15.75;;;;;;;10.98;95.67;98829.41;5565903;32;33394;-56
2022/11/18 10:22:35;;;;;;;24.67;15.35;;;;;;;10.93;95.91;98836.84;5566987;32;34353;-55
2022/11/18 10:25:38;;;;;;;21.20;14.35;;;;;;;10.77;94.41;98832.00;5566861;31;33731;-55
2022/11/18 10:28:40;;;;;;;28.85;16.30;;;;;;;11.02;100.00;98827.66;5566446;31;34340;-56
2022/11/18 10:31:55;;;;;;;27.37;18.17;;;;;;;10.99;100.00;98819.47;5566307;31;33646;-56
2022/11/18 10:35:35;;;;;;;26.67;17.12;;;;;;;10.96;92.49;98820.91;5566056;32;33821;-55
2022/11/18 10:38:41;;;;;;;26.95;15.65;;;;;;;10.78;98.26;98816.69;5562481;32;33322;-55
2022/11/18 10:41:54;;;;;;;24.73;16.27;;;;;;;10.70;98.71;98814.84;5569210;31;33737;-56
2022/11/18 10:45:14;;;;;;;;;;;;;;;10.77;97.76;98813.22;5558439;32;33632;-55
2022/11/18 10:48:17;;;;;;;29.42;17.50;;;;;;;10.81;94.34;98818.72;5567639;32;34061;-56
2022/11/18 10:51:23;;;;;;;25.48;16.77;;;;;;;10.65;95.05;98820.34;5567981;31;33731;-56
2022/11/18 10:54:25;;;;;;;29.50;17.25;;;;;;;10.65;92.33;98813.09;5566358;31;33687;-56
2022/11/18 10:57:33;;;;;;;29.85;17.42;;;;;;;10.73;100.00;98808.84;5567949;31;34258;-57
2022/11/18 11:00:46;;;;;;;31.02;19.12;;;;;;;10.74;100.00;98807.72;5570757;31;33825;-55
2022/11/18 11:04:11;;;;;;;25.60;15.55;;;;;;;10.94;100.00;98798.19;5566001;31;34373;-55
2022/11/18 11:07:15;;;;;;;31.52;18.17;;;;;;;10.96;100.00;98788.72;5569225;32;33682;-55
2022/11/18 11:10:22;;;;;;;25.98;16.25;;;;;;;10.72;92.04;98793.84;5569213;32;34442;-55
2022/11/18 11:13:29;;;;;;;28.58;17.42;;;;;;;10.65;98.60;98799.69;5569873;31;33942;-55
2022/11/18 11:16:40;;;;;;;28.38;17.27;;;;;;;10.66;93.43;98809.31;5566973;32;33784;-55
2022/11/18 11:19:49;;;;;;;25.20;17.17;;;;;;;10.62;97.34;98807.59;5567904;32;33706;-55
2022/11/18 11:22:53;;;;;;;26.80;16.80;;;;;;;10.65;93.89;98813.09;5566022;31;33399;-55
2022/11/18 11:26:00;;;;;;;23.58;15.25;;;;;;;10.48;92.53;98815.81;5569560;31;33588;-55
2022/11/18 11:29:29;;;;;;;23.90;15.15;;;;;;;10.47;99.51;98812.34;5559987;32;34429;-56
2022/11/18 11:32:59;;;;;;;25.50;15.82;;;;;;;10.61;100.00;98817.50;5560060;32;34246;-55
2022/11/18 11:36:33;;;;;;;26.80;15.48;;;;;;;10.45;94.09;98821.78;5567324;32;33527;-55
2022/11/18 11:39:38;;;;;;;26.60;15.65;;;;;;;10.49;100.00;98823.50;5566903;31;33736;-55
2022/11/18 11:43:10;;;;;;;27.55;16.35;;;;;;;10.51;100.00;98813.28;5568481;31;33731;-55
2022/11/18 11:46:27;;;;;;;21.20;13.93;;;;;;;10.63;100.00;98811.81;5566546;32;34308;-56
2022/11/18 11:49:35;;;;;;;;;;;;;;;10.67;100.00;98812.78;5566701;31;33969;-55
2022/11/18 11:52:50;;;;;;;15.35;11.27;;;;;;;10.85;100.00;98806.25;5566568;31;33346;-55
2022/11/18 11:56:02;;;;;;;17.50;11.70;;;;;;;11.01;100.00;98812.66;5564262;31;34386;-56
2022/11/18 11:59:23;;;;;;;15.75;11.55;;;;;;;11.01;97.16;98814.56;5564382;31;33625;-55
2022/11/18 12:03:00;;;;;;;15.23;11.35;;;;;;;10.84;100.00;98810.06;5556758;32;33672;-55
2022/11/18 12:06:03;;;;;;;17.33;11.25;;;;;;;10.80;100.00;98811.81;5561265;31;33655;-55
2022/11/18 12:09:25;;;;;;;16.75;11.50;;;;;;;10.62;94.76;98807.59;5569378;31;33423;-55
2022/11/18 12:12:38;;;;;;;16.08;10.27;;;;;;;10.50;94.59;98805.56;5568335;31;33332;-56
2022/11/18 12:16:18;;;;;;;15.15;10.70;;;;;;;10.77;100.00;98802.50;5569592;31;34317;-55
2022/11/18 12:19:22;;;;;;;13.68;9.57;;;;;;;10.68;96.47;98796.37;5564313;32;33710;-55
2022/11/18 12:23:02;;;;;;;12.93;9.75;;;;;;;10.67;100.00;98800.16;5567303;31;34248;-55
2022/11/18 12:26:08;;;;;;;14.27;10.43;;;;;;;10.70;98.09;98788.81;5570900;31;33684;-55
2022/11/18 12:29:19;;;;;;;14.95;10.35;;;;;;;10.85;98.38;98787.50;5566323;32;33718;-55
2022/11/18 12:32:28;;;;;;;16.65;10.73;;;;;;;10.79;98.17;98770.00;5575968;31;33676;-54
2022/11/18 12:35:31;;;;;;;18.92;10.15;;;;;;;10.53;96.42;98764.75;5578807;31;33958;-55
2022/11/18 12:38:34;;;;;;;15.30;10.18;;;;;;;10.42;96.82;98768.84;5568114;32;33725;-55
2022/11/18 12:45:40;;;;;;;18.30;10.20;;;;;;;10.43;96.89;98765.06;5548873;31;33673;-55
2022/11/18 12:48:43;;;;;;;15.43;11.07;;;;;;;10.50;99.45;98762.69;5557625;32;34230;-55
2022/11/18 12:51:46;;;;;;;13.40;10.02;;;;;;;10.66;100.00;98769.13;5566921;31;34450;-55
2022/11/18 12:54:49;;;;;;;15.57;9.60;;;;;;;10.95;100.00;98764.91;5567317;31;34400;-55
2022/11/18 12:57:51;;;;;;;12.23;9.20;;;;;;;10.96;100.00;98775.31;5568771;31;33972;-55
2022/11/18 13:01:07;;;;;;;15.02;9.05;;;;;;;10.97;98.17;98762.72;5569716;31;33800;-55
2022/11/18 13:04:10;;;;;;;13.35;8.70;;;;;;;10.82;100.00;98769.38;5568260;32;33686;-55
2022/11/18 13:10:38;;;;;;;12.10;8.43;;;;;;;10.50;93.15;98790.28;5568108;32;34510;-55
2022/11/18 13:13:41;;;;;;;13.25;9.27;;;;;;;10.28;95.14;98793.91;5568160;32;34265;-55
2022/11/18 13:20:17;;;;;;;11.82;8.50;;;;;;;10.00;93.22;98798.78;5570678;32;33576;-55
2022/11/18 13:26:58;;;;;;;10.68;7.87;;;;;;;9.92;97.63;98820.19;5570373;32;33694;-55
2022/11/18 13:30:10;;;;;;;11.88;8.43;;;;;;;9.88;94.33;98815.47;5570818;32;33240;-55
2022/11/18 13:33:12;;;;;;;10.70;7.87;;;;;;;9.85;93.84;98821.44;5570262;32;34306;-55
2022/11/18 13:36:21;;;;;;;11.63;8.55;;;;;;;9.86;93.27;98825.69;5570400;32;33721;-55
2022/11/18 13:39:29;;;;;;;11.02;7.55;;;;;;;9.81;93.64;98828.53;5570308;32;33653;-55
2022/11/18 13:42:31;;;;;;;10.50;7.60;;;;;;;10.13;100.00;98823.81;5569880;32;34169;-56
2022/11/18 13:45:34;;;;;;;10.45;7.40;;;;;;;10.17;97.38;98821.31;5570616;32;33705;-55
2022/11/18 13:48:43;;;;;;;11.80;8.75;;;;;;;10.14;92.52;98829.97;5570210;32;33825;-55
2022/11/18 13:51:45;;;;;;;11.68;8.82;;;;;;;10.19;100.00;98830.59;5570479;32;34412;-55
2022/11/18 13:54:51;;;;;;;12.23;9.60;;;;;;;10.34;100.00;98829.38;5570265;32;33644;-55
2022/11/18 13:58:19;;;;;;;11.57;8.10;;;;;;;10.07;93.75;98825.09;5570486;32;34533;-55
2022/11/18 14:01:25;;;;;;;12.98;9.40;;;;;;;9.95;91.37;98823.03;5570562;32;33635;-55
2022/11/18 14:04:30;;;;;;;12.90;9.93;;;;;;;10.24;100.00;98821.63;5570365;32;34305;-55
2022/11/18 14:07:34;;;;;;;13.25;9.80;;;;;;;9.95;93.88;98819.56;5570587;32;33251;-55
2022/11/18 14:10:41;;;;;;;12.35;9.30;;;;;;;10.18;100.00;98822.88;5570109;32;34515;-55
2022/11/18 14:13:50;;;;;;;11.65;8.68;;;;;;;10.31;100.00;98820.06;5570241;32;33790;-55
2022/11/18 14:16:53;;;;;;;11.88;8.85;;;;;;;10.44;97.57;98814.88;5569893;32;33863;-55
2022/11/18 14:19:57;;;;;;;13.50;9.43;;;;;;;10.15;100.00;98816.25;5569470;32;33969;-55
2022/11/18 14:23:02;;;;;;;13.27;8.45;;;;;;;10.43;100.00;98819.44;5569915;32;33675;-55
2022/11/18 14:26:05;;;;;;;11.88;8.50;;;;;;;10.07;90.17;98825.09;5570012;32;34284;-56
2022/11/18 14:29:22;;;;;;;13.43;7.95;;;;;;;9.98;90.31;98824.28;5569531;32;34350;-55
2022/11/18 14:32:25;;;;;;;13.52;7.60;;;;;;;9.97;91.39;98823.50;5569904;32;34275;-55
2022/11/18 14:35:28;;;;;;;12.10;8.80;;;;;;;9.97;90.96;98822.72;5570069;32;33753;-55
2022/11/18 14:38:42;;;;;;;12.15;7.95;;;;;;;9.95;92.75;98827.59;5569634;32;34307;-55
2022/11/18 14:42:05;;;;;;;15.52;9.88;;;;;;;9.89;92.74;98833.09;5569516;32;33739;-55
2022/11/18 14:45:10;;;;;;;11.93;8.52;;;;;;;10.18;100.00;98829.03;5569609;32;34313;-55
2022/11/18 14:48:16;;;;;;;11.90;9.38;;;;;;;10.13;100.00;98826.50;5569825;32;34487;-55
2022/11/18 14:51:18;;;;;;;13.20;9.90;;;;;;;10.13;98.14;98829.16;5570041;32;33780;-55
2022/11/18 14:54:26;;;;;;;13.65;9.65;;;;;;;10.12;100.00;98822.25;5569819;32;33742;-54
2022/11/18 14:57:29;;;;;;;13.00;9.65;;;;;;;10.10;100.00;98821.78;5569635;32;34294;-55
2022/11/18 15:00:31;;;;;;;14.15;10.52;;;;;;;10.12;93.02;98830.28;5569714;32;34342;-55
2022/11/18 15:03:33;;;;;;;13.35;9.75;;;;;;;10.03;92.58;98818.78;5570057;32;33758;-55
2022/11/18 15:06:36;;;;;;;16.10;10.93;;;;;;;10.03;91.50;98821.44;5569842;32;34455;-55
2022/11/18 15:09:39;;;;;;;14.98;10.15;;;;;;;10.08;95.05;98814.06;5569549;32;33726;-55
2022/11/18 15:12:41;;;;;;;17.00;11.57;;;;;;;10.11;98.20;98808.06;5569630;32;33634;-55
2022/11/18 15:15:43;;;;;;;13.75;10.43;;;;;;;10.06;92.92;98810.09;5569903;32;33632;-55
2022/11/18 15:18:51;;;;;;;15.73;11.23;;;;;;;10.08;90.76;98814.06;5569502;32;34398;-55
2022/11/18 15:21:53;;;;;;;16.23;11.20;;;;;;;9.86;90.70;98811.50;5569378;32;33685;-55
2022/11/18 15:24:55;;;;;;;19.27;13.20;;;;;;;9.85;92.59;98823.31;5569831;32;33653;-55
2022/11/18 15:27:57;;;;;;;20.80;12.50;;;;;;;9.88;91.72;98826.16;5569826;32;33700;-55
2022/11/18 15:31:00;;;;;;;17.12;12.48;;;;;;;9.90;91.04;98828.53;5569307;32;33726;-56
2022/11/18 15:34:02;;;;;;;21.58;13.45;;;;;;;9.91;90.54;98830.13;5569658;32;33650;-55
2022/11/18 15:37:11;;;;;;;22.27;13.95;;;;;;;9.83;89.95;98828.19;5569384;32;33655;-55
2022/11/18 15:40:13;;;;;;;19.67;13.90;;;;;;;9.79;91.11;98846.78;5568274;32;33730;-55
2022/11/18 15:43:16;;;;;;;16.85;13.38;;;;;;;9.85;98.56;98832.12;5569394;32;33791;-55
2022/11/18 15:46:20;;;;;;;21.35;14.57;;;;;;;9.84;93.43;98835.16;5569233;32;33768;-55
2022/11/18 15:49:23;;;;;;;18.75;13.95;;;;;;;9.98;90.51;98826.97;5569118;32;34065;-55
2022/11/18 15:52:27;;;;;;;21.67;15.05;;;;;;;9.90;91.86;98825.88;5569073;32;34270;-55
2022/11/18 15:55:29;;;;;;;18.48;13.68;;;;;;;10.01;90.37;98829.03;5569245;32;34214;-55
2022/11/18 15:58:31;;;;;;;20.65;15.35;;;;;;;9.97;92.45;98836.91;5569319;32;34338;-55
2022/11/18 16:01:42;;;;;;;21.73;15.73;;;;;;;10.11;89.54;98844.78;5569268;32;33932;-56
2022/11/18 16:04:45;;;;;;;22.05;15.10;;;;;;;10.07;89.88;98846.50;5569254;32;33785;-56
2022/11/18 16:07:47;;;;;;;21.83;14.90;;;;;;;10.04;91.00;98844.47;5569322;32;33661;-55
2022/11/18 16:14:18;;;;;;;21.55;14.50;;;;;;;9.89;93.32;98856.38;5568889;32;33842;-55
2022/11/18 16:17:21;;;;;;;23.55;15.20;;;;;;;9.93;100.00;98860.00;5569300;32;34379;-56
2022/11/18 16:20:24;;;;;;;21.90;15.88;;;;;;;9.83;100.00;98854.97;5569016;32;33751;-56
2022/11/18 16:23:26;;;;;;;21.35;15.10;;;;;;;9.82;99.86;98853.38;5569022;32;33930;-56
2022/11/18 16:26:29;;;;;;;24.37;14.48;;;;;;;9.80;98.22;98852.91;5569077;32;33914;-55
2022/11/18 16:29:32;;;;;;;19.83;14.98;;;;;;;9.86;99.80;98843.63;5568909;32;33759;-56
2022/11/18 16:32:34;;;;;;;22.65;16.55;;;;;;;9.96;95.42;98858.59;5568728;32;33723;-55
2022/11/18 16:35:36;;;;;;;43.85;31.95;;;;;;;9.99;95.52;98857.97;5568552;32;34364;-55
